sensor_id;sensor_type;location;lat;lon;timestamp;pressure;altitude;pressure_sealevel;temperature;humidity
13027;BME280;6580;42.680;23.324;2023-07-20T00:02:17;94893.75;;;25.54;72.84
13027;BME280;6580;42.680;23.324;2023-07-20T00:05:03;94890.81;;;25.60;72.14
13027;BME280;6580;42.680;23.324;2023-07-20T00:07:50;94890.59;;;25.67;71.05
13027;BME280;6580;42.680;23.324;2023-07-20T00:10:36;94887.34;;;25.65;71.88
13027;BME280;6580;42.680;23.324;2023-07-20T00:13:21;94887.63;;;25.42;72.25
13027;BME280;6580;42.680;23.324;2023-07-20T00:16:07;94902.19;;;25.52;72.09
13027;BME280;6580;42.680;23.324;2023-07-20T00:18:52;94898.97;;;25.34;73.97
13027;BME280;6580;42.680;23.324;2023-07-20T00:21:37;94903.41;;;25.40;72.90
13027;BME280;6580;42.680;23.324;2023-07-20T00:24:26;94904.81;;;25.42;71.33
13027;BME280;6580;42.680;23.324;2023-07-20T00:27:11;94904.22;;;25.40;70.90
13027;BME280;6580;42.680;23.324;2023-07-20T00:29:57;94894.16;;;25.41;70.92
13027;BME280;6580;42.680;23.324;2023-07-20T00:32:43;94906.72;;;25.42;70.75
13027;BME280;6580;42.680;23.324;2023-07-20T00:35:28;94901.31;;;25.47;72.34
13027;BME280;6580;42.680;23.324;2023-07-20T00:38:13;94900.75;;;25.45;69.97
13027;BME280;6580;42.680;23.324;2023-07-20T00:41:00;94900.84;;;25.55;69.20
13027;BME280;6580;42.680;23.324;2023-07-20T00:43:45;94901.13;;;25.53;68.95
13027;BME280;6580;42.680;23.324;2023-07-20T00:46:31;94899.56;;;25.36;71.29
13027;BME280;6580;42.680;23.324;2023-07-20T00:49:17;94894.44;;;25.18;73.26
13027;BME280;6580;42.680;23.324;2023-07-20T00:52:06;94897.28;;;24.85;76.70
13027;BME280;6580;42.680;23.324;2023-07-20T00:54:52;94892.22;;;24.72;80.09
13027;BME280;6580;42.680;23.324;2023-07-20T00:57:41;94887.56;;;24.72;82.82
13027;BME280;6580;42.680;23.324;2023-07-20T01:00:27;94882.72;;;24.58;84.26
13027;BME280;6580;42.680;23.324;2023-07-20T01:03:12;94885.69;;;24.73;84.79
13027;BME280;6580;42.680;23.324;2023-07-20T01:06:04;94876.22;;;24.59;85.44
13027;BME280;6580;42.680;23.324;2023-07-20T01:09:07;94887.63;;;24.56;86.95
13027;BME280;6580;42.680;23.324;2023-07-20T01:11:59;94895.63;;;24.63;87.45
13027;BME280;6580;42.680;23.324;2023-07-20T01:14:49;94899.59;;;24.55;87.69
13027;BME280;6580;42.680;23.324;2023-07-20T01:17:35;94903.88;;;24.35;89.17
13027;BME280;6580;42.680;23.324;2023-07-20T01:20:21;94898.97;;;24.15;90.70
13027;BME280;6580;42.680;23.324;2023-07-20T01:23:31;94903.34;;;24.16;91.31
13027;BME280;6580;42.680;23.324;2023-07-20T01:26:41;94895.56;;;24.25;90.93
13027;BME280;6580;42.680;23.324;2023-07-20T01:29:44;94897.53;;;24.29;91.83
13027;BME280;6580;42.680;23.324;2023-07-20T01:32:34;94904.91;;;24.12;93.51
13027;BME280;6580;42.680;23.324;2023-07-20T01:35:23;94900.03;;;23.98;94.60
13027;BME280;6580;42.680;23.324;2023-07-20T01:38:12;94907.88;;;23.94;95.14
13027;BME280;6580;42.680;23.324;2023-07-20T01:40:59;94904.97;;;24.01;93.95
13027;BME280;6580;42.680;23.324;2023-07-20T01:43:44;94904.41;;;23.82;94.33
13027;BME280;6580;42.680;23.324;2023-07-20T01:46:30;94899.47;;;23.79;95.74
13027;BME280;6580;42.680;23.324;2023-07-20T01:49:17;94897.47;;;23.91;93.01
13027;BME280;6580;42.680;23.324;2023-07-20T01:52:03;94893.09;;;23.74;94.35
13027;BME280;6580;42.680;23.324;2023-07-20T01:54:49;94895.34;;;23.93;93.15
13027;BME280;6580;42.680;23.324;2023-07-20T01:57:34;94904.16;;;23.84;94.31
13027;BME280;6580;42.680;23.324;2023-07-20T02:00:20;94900.09;;;23.86;94.21
13027;BME280;6580;42.680;23.324;2023-07-20T02:03:08;94897.19;;;23.76;95.78
13027;BME280;6580;42.680;23.324;2023-07-20T02:05:54;94893.16;;;23.63;95.52
13027;BME280;6580;42.680;23.324;2023-07-20T02:08:40;94891.50;;;23.62;96.82
13027;BME280;6580;42.680;23.324;2023-07-20T02:11:26;94892.19;;;23.85;93.71
13027;BME280;6580;42.680;23.324;2023-07-20T02:14:11;94892.81;;;23.75;94.27
13027;BME280;6580;42.680;23.324;2023-07-20T02:16:57;94886.63;;;23.63;96.32
13027;BME280;6580;42.680;23.324;2023-07-20T02:19:43;94891.66;;;23.71;95.98
13027;BME280;6580;42.680;23.324;2023-07-20T02:22:30;94892.38;;;23.78;95.72
13027;BME280;6580;42.680;23.324;2023-07-20T02:25:16;94892.66;;;23.65;98.24
13027;BME280;6580;42.680;23.324;2023-07-20T02:28:03;94891.72;;;23.88;96.05
13027;BME280;6580;42.680;23.324;2023-07-20T02:30:49;94890.84;;;23.71;98.91
13027;BME280;6580;42.680;23.324;2023-07-20T02:33:34;94890.22;;;23.53;99.74
13027;BME280;6580;42.680;23.324;2023-07-20T02:36:20;94888.75;;;23.45;100.00
13027;BME280;6580;42.680;23.324;2023-07-20T02:39:06;94879.06;;;23.65;100.00
13027;BME280;6580;42.680;23.324;2023-07-20T02:41:52;94873.38;;;23.67;99.24
13027;BME280;6580;42.680;23.324;2023-07-20T02:44:37;94864.13;;;23.52;100.00
13027;BME280;6580;42.680;23.324;2023-07-20T02:47:23;94865.66;;;23.48;100.00
13027;BME280;6580;42.680;23.324;2023-07-20T02:50:08;94866.19;;;23.45;100.00
13027;BME280;6580;42.680;23.324;2023-07-20T02:52:54;94871.00;;;23.26;100.00
13027;BME280;6580;42.680;23.324;2023-07-20T02:55:41;94866.72;;;23.30;100.00
13027;BME280;6580;42.680;23.324;2023-07-20T02:58:26;94867.19;;;23.27;100.00
13027;BME280;6580;42.680;23.324;2023-07-20T03:01:12;94871.53;;;23.12;100.00
13027;BME280;6580;42.680;23.324;2023-07-20T03:03:59;94867.28;;;23.04;100.00
13027;BME280;6580;42.680;23.324;2023-07-20T03:06:44;94869.31;;;23.09;100.00
13027;BME280;6580;42.680;23.324;2023-07-20T03:09:30;94872.06;;;23.25;100.00
13027;BME280;6580;42.680;23.324;2023-07-20T03:12:17;94867.38;;;23.21;100.00
13027;BME280;6580;42.680;23.324;2023-07-20T03:15:03;94869.59;;;23.24;100.00
13027;BME280;6580;42.680;23.324;2023-07-20T03:17:48;94879.03;;;23.21;100.00
13027;BME280;6580;42.680;23.324;2023-07-20T03:20:35;94881.06;;;23.26;100.00
13027;BME280;6580;42.680;23.324;2023-07-20T03:23:20;94878.81;;;23.23;100.00
13027;BME280;6580;42.680;23.324;2023-07-20T03:26:06;94883.50;;;23.11;100.00
13027;BME280;6580;42.680;23.324;2023-07-20T03:28:53;94888.03;;;23.22;100.00
13027;BME280;6580;42.680;23.324;2023-07-20T03:31:39;94888.66;;;23.12;100.00
13027;BME280;6580;42.680;23.324;2023-07-20T03:34:24;94889.88;;;23.33;100.00
13027;BME280;6580;42.680;23.324;2023-07-20T03:37:09;94884.84;;;23.25;100.00
13027;BME280;6580;42.680;23.324;2023-07-20T03:39:55;94888.50;;;23.47;100.00
13027;BME280;6580;42.680;23.324;2023-07-20T03:42:40;94885.69;;;23.42;100.00
13027;BME280;6580;42.680;23.324;2023-07-20T03:45:29;94893.78;;;23.53;100.00
13027;BME280;6580;42.680;23.324;2023-07-20T03:48:15;94889.75;;;23.56;100.00
13027;BME280;6580;42.680;23.324;2023-07-20T03:51:01;94897.81;;;23.51;99.99
13027;BME280;6580;42.680;23.324;2023-07-20T03:53:46;94889.25;;;23.59;97.93
13027;BME280;6580;42.680;23.324;2023-07-20T03:59:19;94896.78;;;23.68;96.23
13027;BME280;6580;42.680;23.324;2023-07-20T04:02:06;94899.88;;;23.60;95.83
13027;BME280;6580;42.680;23.324;2023-07-20T04:04:51;94907.16;;;23.71;94.96
13027;BME280;6580;42.680;23.324;2023-07-20T04:07:37;94884.56;;;23.54;94.19
13027;BME280;6580;42.680;23.324;2023-07-20T04:10:22;94886.72;;;23.52;94.42
13027;BME280;6580;42.680;23.324;2023-07-20T04:13:08;94892.56;;;23.61;94.39
13027;BME280;6580;42.680;23.324;2023-07-20T04:15:53;94893.47;;;23.66;94.43
13027;BME280;6580;42.680;23.324;2023-07-20T04:18:40;94879.56;;;23.79;93.62
13027;BME280;6580;42.680;23.324;2023-07-20T04:21:27;94882.47;;;23.89;92.61
13027;BME280;6580;42.680;23.324;2023-07-20T04:24:12;94875.97;;;23.90;92.41
13027;BME280;6580;42.680;23.324;2023-07-20T04:26:58;94884.78;;;23.97;91.47
13027;BME280;6580;42.680;23.324;2023-07-20T04:29:44;94873.69;;;23.70;92.65
13027;BME280;6580;42.680;23.324;2023-07-20T04:32:29;94877.25;;;23.71;92.86
13027;BME280;6580;42.680;23.324;2023-07-20T04:35:45;94878.59;;;23.85;92.88
13027;BME280;6580;42.680;23.324;2023-07-20T04:38:32;94879.97;;;23.71;94.51
13027;BME280;6580;42.680;23.324;2023-07-20T04:41:18;94865.75;;;23.80;92.57
13027;BME280;6580;42.680;23.324;2023-07-20T04:44:06;94867.28;;;23.76;93.33
13027;BME280;6580;42.680;23.324;2023-07-20T04:46:51;94872.41;;;23.89;93.41
13027;BME280;6580;42.680;23.324;2023-07-20T04:49:37;94873.56;;;23.93;93.22
13027;BME280;6580;42.680;23.324;2023-07-20T04:52:24;94865.16;;;24.11;91.44
13027;BME280;6580;42.680;23.324;2023-07-20T04:55:10;94860.69;;;24.22;91.93
13027;BME280;6580;42.680;23.324;2023-07-20T04:57:55;94859.16;;;24.47;90.77
13027;BME280;6580;42.680;23.324;2023-07-20T05:00:40;94862.63;;;24.43;92.02
13027;BME280;6580;42.680;23.324;2023-07-20T05:03:26;94861.59;;;24.65;87.83
13027;BME280;6580;42.680;23.324;2023-07-20T05:06:12;94854.06;;;24.72;86.16
13027;BME280;6580;42.680;23.324;2023-07-20T05:08:58;94852.72;;;24.74;86.98
13027;BME280;6580;42.680;23.324;2023-07-20T05:11:44;94862.66;;;24.85;85.65
13027;BME280;6580;42.680;23.324;2023-07-20T05:14:31;94870.53;;;25.25;83.82
13027;BME280;6580;42.680;23.324;2023-07-20T05:17:16;94869.38;;;26.00;79.16
13027;BME280;6580;42.680;23.324;2023-07-20T05:20:02;94861.84;;;26.48;74.89
13027;BME280;6580;42.680;23.324;2023-07-20T05:22:49;94869.06;;;27.25;71.19
13027;BME280;6580;42.680;23.324;2023-07-20T05:25:35;94870.16;;;27.19;68.42
13027;BME280;6580;42.680;23.324;2023-07-20T05:28:21;94868.13;;;27.96;64.71
13027;BME280;6580;42.680;23.324;2023-07-20T05:31:06;94859.66;;;28.47;62.89
13027;BME280;6580;42.680;23.324;2023-07-20T05:33:51;94870.00;;;28.90;60.53
13027;BME280;6580;42.680;23.324;2023-07-20T05:37:08;94865.88;;;28.93;59.99
13027;BME280;6580;42.680;23.324;2023-07-20T05:39:54;94862.63;;;29.49;58.03
13027;BME280;6580;42.680;23.324;2023-07-20T05:42:41;94859.47;;;29.17;58.80
13027;BME280;6580;42.680;23.324;2023-07-20T05:45:26;94880.16;;;29.58;54.96
13027;BME280;6580;42.680;23.324;2023-07-20T05:48:12;94877.88;;;29.75;54.12
13027;BME280;6580;42.680;23.324;2023-07-20T05:50:57;94875.28;;;30.31;52.07
13027;BME280;6580;42.680;23.324;2023-07-20T05:53:43;94877.19;;;30.64;49.93
13027;BME280;6580;42.680;23.324;2023-07-20T05:56:29;94876.63;;;30.67;48.60
13027;BME280;6580;42.680;23.324;2023-07-20T05:59:16;94869.97;;;30.73;47.58
13027;BME280;6580;42.680;23.324;2023-07-20T06:02:01;94868.63;;;30.94;46.82
13027;BME280;6580;42.680;23.324;2023-07-20T06:04:47;94865.44;;;31.34;44.88
13027;BME280;6580;42.680;23.324;2023-07-20T06:07:32;94864.41;;;31.72;43.68
13027;BME280;6580;42.680;23.324;2023-07-20T06:10:19;94871.19;;;32.34;41.67
13027;BME280;6580;42.680;23.324;2023-07-20T06:13:05;94860.50;;;31.54;44.79
13027;BME280;6580;42.680;23.324;2023-07-20T06:15:52;94866.41;;;32.21;44.85
13027;BME280;6580;42.680;23.324;2023-07-20T06:18:37;94862.84;;;32.03;44.02
13027;BME280;6580;42.680;23.324;2023-07-20T06:21:23;94857.50;;;31.51;46.32
13027;BME280;6580;42.680;23.324;2023-07-20T06:24:08;94839.94;;;32.39;44.16
13027;BME280;6580;42.680;23.324;2023-07-20T06:26:54;94845.53;;;32.34;44.18
13027;BME280;6580;42.680;23.324;2023-07-20T06:29:39;94827.81;;;32.03;43.87
13027;BME280;6580;42.680;23.324;2023-07-20T06:32:26;94840.25;;;32.51;43.78
13027;BME280;6580;42.680;23.324;2023-07-20T06:35:12;94838.25;;;33.02;42.75
13027;BME280;6580;42.680;23.324;2023-07-20T06:37:57;94842.75;;;32.98;42.51
13027;BME280;6580;42.680;23.324;2023-07-20T06:40:45;94831.88;;;32.88;42.80
13027;BME280;6580;42.680;23.324;2023-07-20T06:43:31;94832.31;;;33.08;41.53
13027;BME280;6580;42.680;23.324;2023-07-20T06:46:17;94834.25;;;32.94;42.80
13027;BME280;6580;42.680;23.324;2023-07-20T06:49:06;94837.63;;;32.91;43.36
13027;BME280;6580;42.680;23.324;2023-07-20T06:51:54;94839.06;;;33.83;40.86
13027;BME280;6580;42.680;23.324;2023-07-20T06:54:40;94831.47;;;34.67;39.28
13027;BME280;6580;42.680;23.324;2023-07-20T06:57:25;94832.97;;;34.30;39.45
13027;BME280;6580;42.680;23.324;2023-07-20T07:00:12;94858.13;;;34.20;39.34
13027;BME280;6580;42.680;23.324;2023-07-20T07:02:57;94861.72;;;35.16;38.14
13027;BME280;6580;42.680;23.324;2023-07-20T07:05:44;94860.34;;;35.74;36.90
13027;BME280;6580;42.680;23.324;2023-07-20T07:08:30;94860.38;;;34.83;38.18
13027;BME280;6580;42.680;23.324;2023-07-20T07:11:15;94860.84;;;32.90;41.53
13027;BME280;6580;42.680;23.324;2023-07-20T07:14:01;94878.88;;;32.69;42.28
13027;BME280;6580;42.680;23.324;2023-07-20T07:16:46;94889.22;;;32.27;43.64
13027;BME280;6580;42.680;23.324;2023-07-20T07:19:32;94902.22;;;31.66;46.14
13027;BME280;6580;42.680;23.324;2023-07-20T07:22:18;94910.69;;;33.39;42.79
13027;BME280;6580;42.680;23.324;2023-07-20T07:25:04;94910.06;;;32.83;42.52
13027;BME280;6580;42.680;23.324;2023-07-20T07:27:52;94916.00;;;34.03;40.12
13027;BME280;6580;42.680;23.324;2023-07-20T07:30:39;94904.72;;;35.14;38.67
13027;BME280;6580;42.680;23.324;2023-07-20T07:33:25;94908.41;;;35.70;37.94
13027;BME280;6580;42.680;23.324;2023-07-20T07:36:10;94895.66;;;36.08;36.66
13027;BME280;6580;42.680;23.324;2023-07-20T07:38:57;94884.06;;;35.58;37.03
13027;BME280;6580;42.680;23.324;2023-07-20T07:41:43;94891.28;;;35.76;36.58
13027;BME280;6580;42.680;23.324;2023-07-20T07:44:28;94891.50;;;35.80;37.02
13027;BME280;6580;42.680;23.324;2023-07-20T07:47:13;94894.44;;;35.92;36.43
13027;BME280;6580;42.680;23.324;2023-07-20T07:49:59;94884.00;;;34.24;38.95
13027;BME280;6580;42.680;23.324;2023-07-20T07:52:44;94847.38;;;34.84;38.50
13027;BME280;6580;42.680;23.324;2023-07-20T07:55:32;94848.38;;;35.18;37.09
13027;BME280;6580;42.680;23.324;2023-07-20T07:58:17;94859.50;;;35.74;36.76
13027;BME280;6580;42.680;23.324;2023-07-20T08:01:03;94845.84;;;37.04;35.79
13027;BME280;6580;42.680;23.324;2023-07-20T08:03:48;94853.38;;;36.11;35.34
13027;BME280;6580;42.680;23.324;2023-07-20T08:06:34;94867.41;;;37.07;34.72
13027;BME280;6580;42.680;23.324;2023-07-20T08:09:19;94881.44;;;37.11;34.61
13027;BME280;6580;42.680;23.324;2023-07-20T08:12:07;94896.75;;;35.12;36.91
13027;BME280;6580;42.680;23.324;2023-07-20T08:14:53;94905.91;;;34.34;38.82
13027;BME280;6580;42.680;23.324;2023-07-20T08:17:38;94901.78;;;33.82;40.35
13027;BME280;6580;42.680;23.324;2023-07-20T08:20:24;94892.13;;;34.86;39.47
13027;BME280;6580;42.680;23.324;2023-07-20T08:23:10;94905.81;;;34.82;40.10
13027;BME280;6580;42.680;23.324;2023-07-20T08:25:56;94913.16;;;35.78;39.00
13027;BME280;6580;42.680;23.324;2023-07-20T08:28:44;94894.53;;;37.10;35.61
13027;BME280;6580;42.680;23.324;2023-07-20T08:31:31;94898.63;;;36.28;36.14
13027;BME280;6580;42.680;23.324;2023-07-20T08:34:17;94909.94;;;35.15;37.65
13027;BME280;6580;42.680;23.324;2023-07-20T08:37:03;94912.03;;;35.10;36.81
13027;BME280;6580;42.680;23.324;2023-07-20T08:39:48;94911.34;;;34.82;36.37
13027;BME280;6580;42.680;23.324;2023-07-20T08:42:33;94906.69;;;33.18;38.11
13027;BME280;6580;42.680;23.324;2023-07-20T08:45:22;94905.19;;;34.85;36.22
13027;BME280;6580;42.680;23.324;2023-07-20T08:48:08;94899.44;;;36.71;33.91
13027;BME280;6580;42.680;23.324;2023-07-20T08:50:53;94905.34;;;35.41;34.89
13027;BME280;6580;42.680;23.324;2023-07-20T08:53:40;94907.25;;;36.86;32.89
13027;BME280;6580;42.680;23.324;2023-07-20T08:56:26;94888.47;;;36.15;33.11
13027;BME280;6580;42.680;23.324;2023-07-20T08:59:13;94892.31;;;35.50;33.75
13027;BME280;6580;42.680;23.324;2023-07-20T09:02:04;94896.13;;;36.01;33.12
13027;BME280;6580;42.680;23.324;2023-07-20T09:04:51;94885.03;;;36.86;32.07
13027;BME280;6580;42.680;23.324;2023-07-20T09:07:43;94864.41;;;37.95;30.73
13027;BME280;6580;42.680;23.324;2023-07-20T09:10:29;94871.06;;;37.74;29.60
13027;BME280;6580;42.680;23.324;2023-07-20T09:13:15;94878.59;;;35.67;32.39
13027;BME280;6580;42.680;23.324;2023-07-20T09:16:01;94870.88;;;34.51;33.59
13027;BME280;6580;42.680;23.324;2023-07-20T09:18:50;94873.63;;;36.79;32.10
13027;BME280;6580;42.680;23.324;2023-07-20T09:21:44;94852.22;;;37.51;30.89
13027;BME280;6580;42.680;23.324;2023-07-20T09:24:32;94858.19;;;37.98;30.00
13027;BME280;6580;42.680;23.324;2023-07-20T09:27:19;94857.94;;;36.41;30.93
13027;BME280;6580;42.680;23.324;2023-07-20T09:30:05;94847.84;;;37.33;30.30
13027;BME280;6580;42.680;23.324;2023-07-20T09:32:51;94836.75;;;37.99;29.39
13027;BME280;6580;42.680;23.324;2023-07-20T09:35:37;94866.97;;;38.90;28.84
13027;BME280;6580;42.680;23.324;2023-07-20T09:38:26;94851.69;;;40.24;26.81
13027;BME280;6580;42.680;23.324;2023-07-20T09:41:13;94850.81;;;41.14;26.01
13027;BME280;6580;42.680;23.324;2023-07-20T09:44:00;94847.06;;;40.95;24.65
13027;BME280;6580;42.680;23.324;2023-07-20T09:46:48;94832.22;;;41.06;24.57
13027;BME280;6580;42.680;23.324;2023-07-20T09:49:39;94843.66;;;41.01;24.67
13027;BME280;6580;42.680;23.324;2023-07-20T09:52:26;94837.38;;;41.04;24.06
13027;BME280;6580;42.680;23.324;2023-07-20T09:55:13;94812.00;;;41.71;23.71
13027;BME280;6580;42.680;23.324;2023-07-20T09:57:58;94804.66;;;41.98;23.06
13027;BME280;6580;42.680;23.324;2023-07-20T10:00:45;94802.16;;;39.26;25.07
13027;BME280;6580;42.680;23.324;2023-07-20T10:03:31;94814.44;;;38.28;25.76
13027;BME280;6580;42.680;23.324;2023-07-20T10:06:23;94806.50;;;37.68;26.78
13027;BME280;6580;42.680;23.324;2023-07-20T10:09:12;94820.44;;;36.18;28.14
13027;BME280;6580;42.680;23.324;2023-07-20T10:12:00;94830.66;;;35.92;29.11
13027;BME280;6580;42.680;23.324;2023-07-20T10:14:52;94829.63;;;35.62;29.80
13027;BME280;6580;42.680;23.324;2023-07-20T10:17:44;94834.06;;;35.72;30.35
13027;BME280;6580;42.680;23.324;2023-07-20T10:20:35;94819.91;;;35.82;29.94
13027;BME280;6580;42.680;23.324;2023-07-20T10:23:22;94827.19;;;35.61;31.36
13027;BME280;6580;42.680;23.324;2023-07-20T10:26:09;94835.56;;;35.86;31.03
13027;BME280;6580;42.680;23.324;2023-07-20T10:28:55;94836.41;;;36.04;30.43
13027;BME280;6580;42.680;23.324;2023-07-20T10:31:42;94826.31;;;36.08;29.55
13027;BME280;6580;42.680;23.324;2023-07-20T10:34:27;94802.97;;;36.17;28.57
13027;BME280;6580;42.680;23.324;2023-07-20T10:37:46;94813.34;;;35.61;29.76
13027;BME280;6580;42.680;23.324;2023-07-20T10:40:32;94824.59;;;34.43;31.49
13027;BME280;6580;42.680;23.324;2023-07-20T10:43:19;94826.69;;;34.16;32.39
13027;BME280;6580;42.680;23.324;2023-07-20T10:46:05;94794.47;;;33.62;32.95
13027;BME280;6580;42.680;23.324;2023-07-20T10:49:00;94747.06;;;32.80;35.03
13027;BME280;6580;42.680;23.324;2023-07-20T10:51:47;94752.88;;;32.92;41.95
13027;BME280;6580;42.680;23.324;2023-07-20T10:54:48;94799.78;;;33.59;41.54
13027;BME280;6580;42.680;23.324;2023-07-20T10:57:34;94783.38;;;33.76;37.47
13027;BME280;6580;42.680;23.324;2023-07-20T11:00:24;94757.25;;;34.47;35.10
13027;BME280;6580;42.680;23.324;2023-07-20T11:03:09;94756.13;;;34.05;34.94
13027;BME280;6580;42.680;23.324;2023-07-20T11:05:56;94752.56;;;33.33;35.27
13027;BME280;6580;42.680;23.324;2023-07-20T11:08:42;94754.44;;;34.39;34.24
13027;BME280;6580;42.680;23.324;2023-07-20T11:11:29;94746.88;;;34.53;33.42
13027;BME280;6580;42.680;23.324;2023-07-20T11:14:21;94743.56;;;34.73;33.12
13027;BME280;6580;42.680;23.324;2023-07-20T11:17:12;94743.88;;;36.51;31.33
13027;BME280;6580;42.680;23.324;2023-07-20T11:19:59;94742.78;;;36.18;31.36
13027;BME280;6580;42.680;23.324;2023-07-20T11:22:46;94733.63;;;35.75;32.02
13027;BME280;6580;42.680;23.324;2023-07-20T11:25:37;94738.31;;;36.51;30.93
13027;BME280;6580;42.680;23.324;2023-07-20T11:28:22;94735.56;;;36.00;31.77
13027;BME280;6580;42.680;23.324;2023-07-20T11:31:07;94733.38;;;35.21;32.55
13027;BME280;6580;42.680;23.324;2023-07-20T11:33:55;94724.09;;;35.25;32.77
13027;BME280;6580;42.680;23.324;2023-07-20T11:36:41;94716.75;;;36.39;31.69
13027;BME280;6580;42.680;23.324;2023-07-20T11:39:27;94704.44;;;36.11;32.23
13027;BME280;6580;42.680;23.324;2023-07-20T11:42:13;94709.94;;;36.82;31.27
13027;BME280;6580;42.680;23.324;2023-07-20T11:44:59;94701.69;;;36.65;31.10
13027;BME280;6580;42.680;23.324;2023-07-20T11:47:45;94706.22;;;36.16;31.95
13027;BME280;6580;42.680;23.324;2023-07-20T11:50:38;94701.13;;;36.80;31.33
13027;BME280;6580;42.680;23.324;2023-07-20T11:53:24;94699.56;;;37.37;30.45
13027;BME280;6580;42.680;23.324;2023-07-20T11:56:10;94691.72;;;38.21;29.57
13027;BME280;6580;42.680;23.324;2023-07-20T11:58:57;94690.44;;;38.63;28.64
13027;BME280;6580;42.680;23.324;2023-07-20T12:01:44;94684.31;;;36.40;31.00
13027;BME280;6580;42.680;23.324;2023-07-20T12:04:31;94677.50;;;37.61;30.35
13027;BME280;6580;42.680;23.324;2023-07-20T12:07:18;94674.25;;;37.59;30.07
13027;BME280;6580;42.680;23.324;2023-07-20T12:10:05;94676.81;;;38.70;28.42
13027;BME280;6580;42.680;23.324;2023-07-20T12:12:51;94667.88;;;38.88;27.71
13027;BME280;6580;42.680;23.324;2023-07-20T12:15:37;94658.47;;;38.04;28.48
13027;BME280;6580;42.680;23.324;2023-07-20T12:18:23;94662.53;;;39.55;26.38
13027;BME280;6580;42.680;23.324;2023-07-20T12:21:09;94665.19;;;40.02;26.04
13027;BME280;6580;42.680;23.324;2023-07-20T12:23:58;94666.84;;;37.63;27.89
13027;BME280;6580;42.680;23.324;2023-07-20T12:26:44;94669.19;;;39.26;26.58
13027;BME280;6580;42.680;23.324;2023-07-20T12:29:29;94659.41;;;38.96;26.01
13027;BME280;6580;42.680;23.324;2023-07-20T12:32:16;94659.41;;;39.56;25.88
13027;BME280;6580;42.680;23.324;2023-07-20T12:35:01;94656.91;;;38.47;26.48
13027;BME280;6580;42.680;23.324;2023-07-20T12:37:47;94655.50;;;36.90;27.35
13027;BME280;6580;42.680;23.324;2023-07-20T12:40:36;94645.91;;;36.87;26.19
13027;BME280;6580;42.680;23.324;2023-07-20T12:43:22;94640.34;;;36.87;26.29
13027;BME280;6580;42.680;23.324;2023-07-20T12:46:07;94645.59;;;37.18;25.94
13027;BME280;6580;42.680;23.324;2023-07-20T12:48:53;94650.78;;;37.19;26.16
13027;BME280;6580;42.680;23.324;2023-07-20T12:51:39;94646.22;;;36.94;26.20
13027;BME280;6580;42.680;23.324;2023-07-20T12:54:24;94653.69;;;36.65;27.37
13027;BME280;6580;42.680;23.324;2023-07-20T12:57:12;94633.06;;;36.74;27.19
13027;BME280;6580;42.680;23.324;2023-07-20T12:59:57;94635.28;;;36.89;26.96
13027;BME280;6580;42.680;23.324;2023-07-20T13:02:43;94638.06;;;36.89;27.81
13027;BME280;6580;42.680;23.324;2023-07-20T13:05:28;94642.59;;;36.11;28.77
13027;BME280;6580;42.680;23.324;2023-07-20T13:08:14;94630.22;;;35.49;29.79
13027;BME280;6580;42.680;23.324;2023-07-20T13:10:59;94639.19;;;35.88;29.31
13027;BME280;6580;42.680;23.324;2023-07-20T13:13:46;94637.22;;;35.38;30.07
13027;BME280;6580;42.680;23.324;2023-07-20T13:16:32;94637.66;;;35.06;30.22
13027;BME280;6580;42.680;23.324;2023-07-20T13:19:18;94630.47;;;34.88;30.48
13027;BME280;6580;42.680;23.324;2023-07-20T13:22:04;94638.78;;;34.49;30.98
13027;BME280;6580;42.680;23.324;2023-07-20T13:24:50;94626.56;;;34.89;30.18
13027;BME280;6580;42.680;23.324;2023-07-20T13:27:36;94633.34;;;34.66;30.72
13027;BME280;6580;42.680;23.324;2023-07-20T13:30:23;94631.72;;;34.65;30.82
13027;BME280;6580;42.680;23.324;2023-07-20T13:33:09;94626.94;;;34.57;31.70
13027;BME280;6580;42.680;23.324;2023-07-20T13:35:54;94632.97;;;34.59;31.80
13027;BME280;6580;42.680;23.324;2023-07-20T13:38:39;94633.06;;;34.38;32.34
13027;BME280;6580;42.680;23.324;2023-07-20T13:41:25;94628.94;;;34.27;32.18
13027;BME280;6580;42.680;23.324;2023-07-20T13:44:10;94620.69;;;33.61;33.67
13027;BME280;6580;42.680;23.324;2023-07-20T13:46:57;94628.69;;;33.84;33.71
13027;BME280;6580;42.680;23.324;2023-07-20T13:49:43;94617.03;;;33.96;33.37
13027;BME280;6580;42.680;23.324;2023-07-20T13:52:28;94615.56;;;33.68;33.66
13027;BME280;6580;42.680;23.324;2023-07-20T13:55:18;94618.94;;;33.43;34.18
13027;BME280;6580;42.680;23.324;2023-07-20T13:58:03;94619.72;;;33.79;34.60
13027;BME280;6580;42.680;23.324;2023-07-20T14:00:49;94613.13;;;33.66;34.28
13027;BME280;6580;42.680;23.324;2023-07-20T14:03:36;94621.69;;;33.87;34.59
13027;BME280;6580;42.680;23.324;2023-07-20T14:06:22;94626.50;;;34.25;31.71
13027;BME280;6580;42.680;23.324;2023-07-20T14:09:07;94611.09;;;33.80;30.60
13027;BME280;6580;42.680;23.324;2023-07-20T14:11:52;94611.84;;;33.50;31.02
13027;BME280;6580;42.680;23.324;2023-07-20T14:14:38;94621.66;;;33.56;30.95
13027;BME280;6580;42.680;23.324;2023-07-20T14:17:25;94625.78;;;33.10;32.09
13027;BME280;6580;42.680;23.324;2023-07-20T14:20:13;94613.59;;;33.25;31.78
13027;BME280;6580;42.680;23.324;2023-07-20T14:22:59;94618.63;;;33.09;32.44
13027;BME280;6580;42.680;23.324;2023-07-20T14:25:44;94614.13;;;32.78;33.09
13027;BME280;6580;42.680;23.324;2023-07-20T14:28:30;94627.44;;;33.11;33.27
13027;BME280;6580;42.680;23.324;2023-07-20T14:31:15;94620.31;;;32.97;32.95
13027;BME280;6580;42.680;23.324;2023-07-20T14:34:01;94628.59;;;32.97;33.33
13027;BME280;6580;42.680;23.324;2023-07-20T14:36:47;94616.78;;;33.18;33.36
13027;BME280;6580;42.680;23.324;2023-07-20T14:39:35;94626.59;;;33.24;34.13
13027;BME280;6580;42.680;23.324;2023-07-20T14:42:20;94628.53;;;32.48;35.00
13027;BME280;6580;42.680;23.324;2023-07-20T14:45:06;94627.91;;;32.51;35.27
13027;BME280;6580;42.680;23.324;2023-07-20T14:47:52;94624.25;;;32.28;35.68